Time;durP1;ratioP1;P1;durP2;ratioP2;P2;SDS_P1;SDS_P2;PMS_P1;PMS_P2;Temp;Humidity;BMP_temperature;BMP_pressure;BME280_temperature;BME280_humidity;BME280_pressure;Samples;Min_cycle;Max_cycle;Signal;HPM_P1;HPM_P2
2022/04/09 00:00:42;;;;;;;12.05;1.70;;;;;;;1.76;96.00;99859.53;2071510;28;43319;-63
2022/04/09 00:01:44;;;;;;;11.68;1.52;;;;;;;1.75;96.16;99859.53;2070904;28;44576;-63
2022/04/09 00:02:46;;;;;;;7.03;1.42;;;;;;;1.73;95.96;99872.72;2071259;28;44194;-63
2022/04/09 00:03:48;;;;;;;7.93;1.58;;;;;;;1.69;96.35;99866.59;2071123;28;46589;-63
2022/04/09 00:04:49;;;;;;;10.88;1.33;;;;;;;1.66;95.91;99873.63;2071261;28;44429;-63
2022/04/09 00:05:51;;;;;;;6.38;1.38;;;;;;;1.62;95.64;99866.63;2070789;28;45578;-63
2022/04/09 00:06:53;;;;;;;8.00;1.52;;;;;;;1.60;95.63;99871.00;2071987;28;20128;-63
2022/04/09 00:07:55;;;;;;;11.75;1.60;;;;;;;1.61;96.57;99870.13;2071082;28;45496;-63
2022/04/09 00:08:56;;;;;;;8.13;1.40;;;;;;;1.61;96.54;99875.41;2071710;28;34540;-64
2022/04/09 00:09:58;;;;;;;8.13;1.15;;;;;;;1.61;96.61;99875.41;2071167;28;44269;-63
2022/04/09 00:11:00;;;;;;;8.25;1.17;;;;;;;1.63;96.48;99874.50;2071599;28;45578;-64
2022/04/09 00:12:02;;;;;;;12.60;1.83;;;;;;;1.52;96.59;99874.56;2070687;28;45229;-63
2022/04/09 00:13:04;;;;;;;12.30;1.23;;;;;;;1.52;96.65;99877.19;2071089;28;42266;-63
2022/04/09 00:14:06;;;;;;;10.48;1.38;;;;;;;1.53;96.51;99873.69;2061870;28;42445;-64
2022/04/09 00:15:09;;;;;;;15.73;1.85;;;;;;;1.51;96.49;99879.88;2062486;28;43736;-64
2022/04/09 00:16:10;;;;;;;5.90;1.23;;;;;;;1.51;96.69;99874.59;2070807;28;43742;-64
2022/04/09 00:17:12;;;;;;;10.55;1.77;;;;;;;1.50;96.66;99883.38;2071258;28;45002;-63
2022/04/09 00:18:15;;;;;;;8.90;1.85;;;;;;;1.43;96.46;99879.88;2070057;28;46832;-63
2022/04/09 00:19:17;;;;;;;10.00;1.67;;;;;;;1.41;96.00;99875.50;2071191;28;40641;-64
2022/04/09 00:20:19;;;;;;;11.02;1.48;;;;;;;1.39;96.44;99880.75;2070758;28;44815;-64
2022/04/09 00:21:23;;;;;;;7.50;1.45;;;;;;;1.40;96.99;99890.44;2070663;28;44220;-63
2022/04/09 00:22:24;;;;;;;7.95;1.40;;;;;;;1.34;96.17;99893.06;2070277;28;46405;-65
2022/04/09 00:23:26;;;;;;;7.55;1.48;;;;;;;1.32;96.76;99894.84;2071293;28;43117;-63
2022/04/09 00:24:28;;;;;;;9.02;1.55;;;;;;;1.35;96.82;99892.22;2071113;28;44068;-63
2022/04/09 00:25:30;;;;;;;7.97;1.60;;;;;;;1.34;96.75;99885.16;2072034;28;20034;-63
2022/04/09 00:26:32;;;;;;;12.05;2.17;;;;;;;1.37;97.28;99889.56;2070335;28;44074;-63
2022/04/09 00:27:33;;;;;;;12.88;1.67;;;;;;;1.36;96.63;99893.94;2071028;28;44562;-63
2022/04/09 00:28:35;;;;;;;14.05;2.17;;;;;;;1.33;97.60;99891.34;2071148;28;36265;-63
2022/04/09 00:29:37;;;;;;;7.80;1.50;;;;;;;1.26;96.66;99894.88;2071158;28;39846;-63
2022/04/09 00:30:39;;;;;;;8.82;2.03;;;;;;;1.26;97.32;99910.69;2070856;28;20046;-64
2022/04/09 00:31:40;;;;;;;9.07;1.95;;;;;;;1.26;97.30;99902.78;2069886;28;45058;-63
2022/04/09 00:32:42;;;;;;;9.00;1.67;;;;;;;1.28;97.31;99903.66;2069262;28;46727;-63
2022/04/09 00:33:44;;;;;;;15.65;2.00;;;;;;;1.25;97.57;99911.56;2071937;28;20042;-63
2022/04/09 00:34:45;;;;;;;9.15;1.42;;;;;;;1.20;96.89;99914.19;2070817;28;20100;-66
2022/04/09 00:35:48;;;;;;;9.27;1.95;;;;;;;1.21;97.56;99915.09;2070986;28;20224;-64
2022/04/09 00:36:49;;;;;;;11.98;2.00;;;;;;;1.29;97.48;99916.84;2062940;28;20292;-63
2022/04/09 00:37:51;;;;;;;13.02;1.92;;;;;;;1.26;97.36;99915.97;2054088;28;45480;-64
2022/04/09 00:38:53;;;;;;;10.18;1.95;;;;;;;1.21;97.59;99918.59;2053974;28;45645;-65
2022/04/09 00:39:56;;;;;;;8.02;1.70;;;;;;;1.19;97.37;99916.84;2055144;28;20065;-65
2022/04/09 00:40:59;;;;;;;13.52;1.73;;;;;;;1.20;97.48;99922.09;2055037;28;20135;-63
2022/04/09 00:42:06;;;;;;;7.88;2.00;;;;;;;1.18;97.19;99925.63;2064144;28;21038;-63
2022/04/09 00:43:07;;;;;;;8.60;1.90;;;;;;;1.20;97.24;99921.22;2070510;28;44012;-63
2022/04/09 00:44:21;;;;;;;10.68;1.58;;;;;;;1.15;97.61;99929.16;2070370;28;44531;-64
2022/04/09 00:45:23;;;;;;;8.57;1.85;;;;;;;1.16;97.11;99933.53;2071414;28;20969;-64
2022/04/09 00:46:25;;;;;;;8.73;1.77;;;;;;;1.17;97.42;99926.50;2062067;28;45520;-65
2022/04/09 00:47:26;;;;;;;10.18;1.50;;;;;;;1.17;97.96;99927.41;2054179;28;30144;-64
2022/04/09 00:48:28;;;;;;;6.50;1.70;;;;;;;1.17;97.83;99932.66;2063100;28;28513;-64
2022/04/09 00:49:30;;;;;;;11.55;2.05;;;;;;;1.14;97.54;99936.16;2071307;28;20041;-65
2022/04/09 00:50:32;;;;;;;10.93;2.13;;;;;;;1.16;97.56;99933.53;2070482;28;45344;-64
2022/04/09 00:51:39;;;;;;;10.10;1.65;;;;;;;1.18;97.50;99936.19;2069672;28;46454;-64
2022/04/09 00:52:49;;;;;;;5.88;1.10;;;;;;;1.07;97.20;99941.47;2070366;28;44456;-64
2022/04/09 00:53:52;;;;;;;10.90;1.55;;;;;;;1.12;97.35;99942.34;2061970;28;45695;-64
2022/04/09 00:54:55;;;;;;;9.27;1.55;;;;;;;1.21;98.45;99949.38;2063268;28;44834;-64
2022/04/09 00:56:20;;;;;;;10.90;1.33;;;;;;;1.20;97.46;99950.22;2062325;28;32411;-65
2022/04/09 00:57:25;;;;;;;9.40;1.48;;;;;;;1.23;97.74;99956.38;2057892;28;20046;-65
2022/04/09 00:58:29;;;;;;;8.18;1.20;;;;;;;1.34;97.52;99959.88;2055345;28;20882;-64
2022/04/09 00:59:35;;;;;;;10.90;1.60;;;;;;;1.39;98.03;99964.28;2062819;28;39180;-64
2022/04/09 01:00:37;;;;;;;9.98;1.30;;;;;;;1.47;97.92;99966.03;2070951;28;45164;-65
2022/04/09 01:01:40;;;;;;;11.73;1.60;;;;;;;1.51;97.95;99965.13;2070675;28;43302;-65
2022/04/09 01:02:45;;;;;;;7.60;1.75;;;;;;;1.56;97.65;99961.59;2061949;28;34868;-64
2022/04/09 01:03:49;;;;;;;8.63;0.93;;;;;;;1.58;97.31;99957.19;2062977;28;26205;-65
2022/04/09 01:04:51;;;;;;;6.68;1.25;;;;;;;1.62;97.25;99961.59;2070399;28;45709;-65
2022/04/09 01:05:53;;;;;;;6.00;1.10;;;;;;;1.61;97.22;99960.72;2069623;28;46540;-65
2022/04/09 01:06:56;;;;;;;9.52;1.77;;;;;;;1.61;97.19;99954.56;2061824;28;44830;-64
2022/04/09 01:08:03;;;;;;;6.00;0.82;;;;;;;1.57;96.79;99966.00;2061876;28;45799;-65
2022/04/09 01:09:07;;;;;;;6.97;1.00;;;;;;;1.57;96.39;99966.00;2062664;28;20047;-65
2022/04/09 01:10:12;;;;;;;8.38;1.17;;;;;;;1.58;97.06;99966.00;2055887;28;20047;-65
2022/04/09 01:11:17;;;;;;;7.47;1.02;;;;;;;1.56;96.33;99962.47;2055416;28;20141;-65
2022/04/09 01:12:18;;;;;;;8.75;1.13;;;;;;;1.50;96.75;99966.00;2062595;28;32888;-65
2022/04/09 01:13:20;;;;;;;6.78;1.20;;;;;;;1.48;96.44;99969.53;2062762;28;20047;-65
2022/04/09 01:14:22;;;;;;;8.10;1.27;;;;;;;1.42;96.32;99966.91;2063249;28;20961;-64
2022/04/09 01:15:24;;;;;;;9.75;0.95;;;;;;;1.39;95.85;99966.94;2062920;28;20158;-64
2022/04/09 01:16:28;;;;;;;6.05;0.70;;;;;;;1.36;96.22;99965.16;2054629;28;20050;-64
2022/04/09 01:17:35;;;;;;;11.07;1.05;;;;;;;1.34;96.17;99972.19;2055446;28;20048;-64
2022/04/09 01:18:41;;;;;;;6.72;0.82;;;;;;;1.28;96.56;99975.72;2055010;28;20055;-63
2022/04/09 01:19:45;;;;;;;5.97;1.15;;;;;;;1.24;96.74;99980.97;2055586;28;20270;-64
2022/04/09 01:20:47;;;;;;;7.93;1.08;;;;;;;1.21;96.94;99976.59;2062836;28;20042;-64
2022/04/09 01:21:49;;;;;;;4.15;0.70;;;;;;;1.18;96.76;99979.22;2070809;28;40248;-64
2022/04/09 01:22:52;;;;;;;3.42;0.88;;;;;;;1.12;96.82;99977.47;2062727;28;43900;-64
2022/04/09 01:23:57;;;;;;;4.53;0.80;;;;;;;1.12;96.90;99987.16;2056776;28;20052;-64
2022/04/09 01:24:59;;;;;;;6.55;1.00;;;;;;;1.08;96.51;99983.63;2063951;28;20089;-64
2022/04/09 01:26:06;;;;;;;10.15;0.93;;;;;;;1.08;96.88;99983.63;2064505;28;20043;-64
2022/04/09 01:27:13;;;;;;;8.32;0.88;;;;;;;1.06;97.09;99990.66;2056990;28;20118;-64
2022/04/09 01:28:16;;;;;;;6.18;1.02;;;;;;;1.07;96.75;99983.63;2056186;28;20091;-66
2022/04/09 01:29:18;;;;;;;5.63;0.80;;;;;;;1.06;97.19;100001.22;2063518;28;43927;-66
2022/04/09 01:30:20;;;;;;;6.88;0.80;;;;;;;1.04;96.94;99989.78;2064218;28;20054;-65
2022/04/09 01:31:22;;;;;;;8.25;1.10;;;;;;;1.03;97.23;99998.56;2055747;28;20161;-64
2022/04/09 01:32:24;;;;;;;4.97;0.60;;;;;;;1.05;97.20;100002.06;2064298;28;20054;-64
2022/04/09 01:33:26;;;;;;;5.28;1.00;;;;;;;1.01;97.26;100000.31;2063912;28;20043;-64
2022/04/09 01:34:28;;;;;;;3.75;0.98;;;;;;;1.05;97.42;100003.84;2064280;28;20050;-64
2022/04/09 01:35:30;;;;;;;8.13;1.00;;;;;;;1.03;97.48;100005.59;2072980;28;20039;-64
2022/04/09 01:36:33;;;;;;;5.75;0.90;;;;;;;0.95;97.42;100003.84;2064369;28;21011;-65
2022/04/09 01:37:35;;;;;;;6.63;0.80;;;;;;;0.92;97.64;100001.19;2055515;28;23164;-64
2022/04/09 01:38:37;;;;;;;9.57;1.08;;;;;;;0.95;97.24;100011.75;2063664;28;45715;-64
2022/04/09 01:39:44;;;;;;;6.10;0.93;;;;;;;0.92;97.55;100013.50;2063961;28;20047;-65
2022/04/09 01:40:46;;;;;;;8.43;1.70;;;;;;;0.92;96.92;100017.00;2063871;28;20063;-65
2022/04/09 01:41:48;;;;;;;5.97;0.82;;;;;;;0.93;97.22;100015.25;2072754;28;20880;-64
2022/04/09 01:42:50;;;;;;;4.50;0.98;;;;;;;0.88;97.63;100015.25;2072005;28;20031;-64
2022/04/09 01:43:53;;;;;;;7.28;1.35;;;;;;;0.93;97.54;100015.25;2063869;28;20693;-63
2022/04/09 01:44:56;;;;;;;7.28;1.13;;;;;;;0.87;97.71;100015.25;2064109;28;20235;-63
2022/04/09 01:45:58;;;;;;;7.97;1.20;;;;;;;0.97;98.12;100016.13;2063589;28;20051;-63
2022/04/09 01:47:00;;;;;;;13.93;1.73;;;;;;;0.99;98.00;100023.16;2063721;28;36988;-63
2022/04/09 01:48:02;;;;;;;11.48;1.95;;;;;;;0.95;97.95;100026.66;2072029;28;20050;-63
2022/04/09 01:49:05;;;;;;;6.55;1.13;;;;;;;0.93;97.60;100028.41;2072087;28;20159;-63
2022/04/09 01:50:10;;;;;;;8.38;1.40;;;;;;;0.94;97.69;100030.19;2063244;28;20860;-64
2022/04/09 01:51:12;;;;;;;7.82;1.48;;;;;;;0.94;97.95;100033.69;2056071;28;20856;-64
2022/04/09 01:52:14;;;;;;;9.27;1.58;;;;;;;0.93;97.49;100036.31;2063352;28;20050;-64
2022/04/09 01:53:18;;;;;;;4.95;1.23;;;;;;;1.01;98.14;100036.34;2063035;28;46735;-64
2022/04/09 01:54:20;;;;;;;6.97;1.38;;;;;;;0.99;97.38;100038.09;2056365;28;20075;-64
2022/04/09 01:55:22;;;;;;;6.25;1.05;;;;;;;1.01;98.24;100037.22;2055787;28;20106;-64
2022/04/09 01:56:25;;;;;;;6.60;1.33;;;;;;;1.00;98.17;100043.34;2055731;28;20824;-64
2022/04/09 01:57:27;;;;;;;7.88;1.10;;;;;;;1.01;97.53;100039.88;2055328;28;44884;-64
2022/04/09 01:58:29;;;;;;;8.13;1.00;;;;;;;1.07;98.09;100038.97;2055841;28;20396;-64
2022/04/09 01:59:32;;;;;;;8.95;0.98;;;;;;;1.01;97.40;100044.25;2055914;28;21027;-64
2022/04/09 02:00:37;;;;;;;3.00;0.68;;;;;;;0.99;98.02;100049.53;2055849;28;20047;-64
2022/04/09 02:01:39;;;;;;;10.02;1.17;;;;;;;0.97;97.32;100045.13;2056313;28;20082;-64
2022/04/09 02:02:42;;;;;;;8.73;1.42;;;;;;;0.94;97.28;100046.00;2055291;28;34814;-64
2022/04/09 02:03:45;;;;;;;8.45;0.85;;;;;;;0.86;97.30;100046.00;2056936;28;20126;-64
2022/04/09 02:04:47;;;;;;;5.68;0.80;;;;;;;0.85;97.52;100049.50;2055578;28;20821;-64
2022/04/09 02:05:49;;;;;;;7.68;0.82;;;;;;;0.82;97.43;100053.88;2056070;28;20886;-64
2022/04/09 02:06:51;;;;;;;6.07;1.23;;;;;;;0.84;97.77;100054.75;2055399;28;21782;-64
2022/04/09 02:07:52;;;;;;;7.38;1.20;;;;;;;0.85;97.42;100057.41;2063010;28;46488;-64
2022/04/09 02:08:55;;;;;;;7.68;1.08;;;;;;;0.80;97.73;100056.50;2063594;28;32665;-64
2022/04/09 02:09:57;;;;;;;6.07;1.00;;;;;;;0.78;97.73;100055.63;2056265;28;20102;-64
2022/04/09 02:11:02;;;;;;;6.85;1.10;;;;;;;0.81;97.93;100054.72;2055830;28;20083;-64
2022/04/09 02:12:06;;;;;;;8.07;1.33;;;;;;;0.76;97.91;100060.00;2055807;28;20040;-64
2022/04/09 02:13:12;;;;;;;7.05;0.75;;;;;;;0.76;97.68;100060.00;2054997;28;20129;-63
2022/04/09 02:14:15;;;;;;;3.88;1.08;;;;;;;0.69;97.29;100060.88;2056657;28;20038;-64
2022/04/09 02:15:17;;;;;;;4.43;1.38;;;;;;;0.71;97.85;100059.13;2063005;28;44464;-63
2022/04/09 02:16:19;;;;;;;9.98;1.10;;;;;;;0.69;97.70;100061.75;2063882;28;20043;-64
2022/04/09 02:17:21;;;;;;;6.90;1.08;;;;;;;0.69;97.70;100052.97;2055572;28;20965;-62
2022/04/09 02:18:23;;;;;;;8.63;1.55;;;;;;;0.70;97.70;100057.34;2054482;28;46315;-64
2022/04/09 02:19:24;;;;;;;5.80;1.33;;;;;;;0.63;97.87;100064.38;2063275;28;30907;-63
2022/04/09 02:20:29;;;;;;;7.50;1.67;;;;;;;0.65;97.89;100072.28;2071556;28;20956;-64
2022/04/09 02:21:30;;;;;;;9.73;1.55;;;;;;;0.68;98.56;100060.00;2070632;28;47205;-64
2022/04/09 02:22:37;;;;;;;10.77;1.77;;;;;;;0.74;98.26;100065.28;2071777;28;23950;-64
2022/04/09 02:23:41;;;;;;;8.55;1.83;;;;;;;0.68;98.70;100067.91;2063670;28;20049;-64
2022/04/09 02:24:43;;;;;;;11.85;1.92;;;;;;;0.65;97.92;100059.97;2055439;28;28325;-64
2022/04/09 02:25:45;;;;;;;10.63;1.83;;;;;;;0.67;98.25;100070.53;2056199;28;20170;-64
2022/04/09 02:26:47;;;;;;;9.38;1.85;;;;;;;0.69;98.00;100076.69;2055739;28;20054;-64
2022/04/09 02:27:48;;;;;;;7.85;2.05;;;;;;;0.70;98.58;100076.69;2063360;28;27348;-64
2022/04/09 02:28:53;;;;;;;11.32;2.25;;;;;;;0.68;98.19;100083.72;2072021;28;20050;-64
2022/04/09 02:29:57;;;;;;;11.43;1.90;;;;;;;0.64;98.16;100079.28;2055403;28;20039;-63
2022/04/09 02:30:59;;;;;;;9.60;1.77;;;;;;;0.63;98.54;100081.91;2055682;28;44401;-64
2022/04/09 02:32:07;;;;;;;7.00;1.85;;;;;;;0.63;98.33;100082.81;2071756;28;20989;-63
2022/04/09 02:33:09;;;;;;;10.93;2.00;;;;;;;0.62;98.06;100088.94;2061890;28;41679;-64
2022/04/09 02:34:15;;;;;;;13.52;2.13;;;;;;;0.64;98.74;100084.56;2055723;28;20047;-64
2022/04/09 02:35:18;;;;;;;13.13;2.08;;;;;;;0.67;97.95;100086.34;2055707;28;21019;-64
2022/04/09 02:36:22;;;;;;;12.57;2.22;;;;;;;0.70;98.78;100089.84;2055859;28;20966;-64
2022/04/09 02:37:24;;;;;;;10.10;2.10;;;;;;;0.62;98.19;100091.56;2047948;28;20043;-64
2022/04/09 02:38:26;;;;;;;12.90;2.28;;;;;;;0.64;98.26;100092.44;2056293;28;20084;-63
2022/04/09 02:39:28;;;;;;;11.25;1.95;;;;;;;0.62;98.11;100102.09;2071951;28;25839;-64
2022/04/09 02:40:30;;;;;;;13.85;2.45;;;;;;;0.60;98.14;100090.69;2063534;28;20499;-68
2022/04/09 02:41:32;;;;;;;12.27;2.28;;;;;;;0.65;98.53;100088.09;2055201;28;20046;-64
2022/04/09 02:42:37;;;;;;;13.52;2.25;;;;;;;0.64;99.09;100097.72;2063504;28;20906;-62
2022/04/09 02:43:43;;;;;;;8.68;2.13;;;;;;;0.66;98.39;100098.59;2063338;28;20042;-64
2022/04/09 02:44:45;;;;;;;13.10;2.75;;;;;;;0.58;99.11;100100.34;2063549;28;45252;-64
2022/04/09 02:45:47;;;;;;;12.55;2.40;;;;;;;0.62;98.74;100107.38;2071379;28;20038;-64
2022/04/09 02:46:50;;;;;;;12.60;2.80;;;;;;;0.59;98.55;100107.34;2063675;28;20050;-64
2022/04/09 02:47:53;;;;;;;8.95;2.65;;;;;;;0.69;98.71;100103.91;2047362;28;20099;-64
2022/04/09 02:48:58;;;;;;;8.18;2.03;;;;;;;0.65;99.07;100106.53;2049452;28;20186;-64
2022/04/09 02:50:03;;;;;;;13.65;2.70;;;;;;;0.64;99.03;100110.91;2056085;28;20098;-64
2022/04/09 02:51:05;;;;;;;11.00;2.50;;;;;;;0.62;98.73;100107.38;2055738;28;20873;-64
2022/04/09 02:52:13;;;;;;;15.48;2.95;;;;;;;0.61;99.25;100121.44;2055079;28;20121;-64
2022/04/09 02:53:14;;;;;;;10.82;2.17;;;;;;;0.56;98.98;100110.88;2064105;28;20086;-64
2022/04/09 02:54:17;;;;;;;12.38;2.60;;;;;;;0.57;98.46;100122.28;2070799;28;20145;-64
2022/04/09 02:55:24;;;;;;;9.35;2.00;;;;;;;0.55;98.65;100124.03;2063053;28;20043;-63
2022/04/09 02:56:26;;;;;;;9.07;2.30;;;;;;;0.53;98.64;100124.03;2063087;28;20573;-64
2022/04/09 02:57:28;;;;;;;12.15;2.35;;;;;;;0.54;98.67;100119.66;2070793;28;35420;-64
2022/04/09 02:58:30;;;;;;;9.25;1.75;;;;;;;0.49;99.17;100116.97;2086385;22;40860;-63
2022/04/09 02:59:31;;;;;;;15.10;2.60;;;;;;;0.57;98.78;100122.28;2072087;28;42198;-64
2022/04/09 03:00:34;;;;;;;11.05;2.28;;;;;;;0.62;98.90;100123.19;2063270;28;20913;-64
2022/04/09 03:01:41;;;;;;;12.55;2.35;;;;;;;0.66;99.48;100129.34;2055424;28;20118;-64
2022/04/09 03:02:43;;;;;;;12.35;2.40;;;;;;;0.69;99.30;100122.34;2063676;28;26759;-63
2022/04/09 03:04:05;;;;;;;10.45;2.20;;;;;;;0.71;99.14;100122.34;2071901;28;20947;-63
2022/04/09 03:05:08;;;;;;;8.68;2.10;;;;;;;0.67;99.46;100126.72;2071311;28;44493;-63
2022/04/09 03:06:11;;;;;;;14.00;2.45;;;;;;;0.67;99.06;100129.34;2063605;28;20999;-64
2022/04/09 03:07:13;;;;;;;10.25;2.30;;;;;;;0.64;99.76;100125.81;2063676;28;20093;-64
2022/04/09 03:08:15;;;;;;;13.48;2.45;;;;;;;0.68;98.79;100128.50;2071604;28;43100;-63
2022/04/09 03:09:16;;;;;;;10.65;2.25;;;;;;;0.71;99.40;100122.34;2071436;28;44013;-63
2022/04/09 03:10:18;;;;;;;14.13;1.98;;;;;;;0.71;99.27;100133.75;2071440;28;45852;-63
2022/04/09 03:11:20;;;;;;;14.98;2.72;;;;;;;0.73;98.74;100137.28;2071587;28;20038;-62
2022/04/09 03:12:24;;;;;;;10.32;1.70;;;;;;;0.65;99.36;100136.38;2063255;28;20035;-63
2022/04/09 03:13:25;;;;;;;8.93;1.73;;;;;;;0.67;98.80;100137.25;2062256;28;44902;-63
2022/04/09 03:14:27;;;;;;;8.93;1.77;;;;;;;0.67;98.90;100134.63;2062701;28;43639;-62
2022/04/09 03:15:30;;;;;;;9.30;1.88;;;;;;;0.68;98.82;100136.41;2047588;28;20921;-63
2022/04/09 03:16:32;;;;;;;7.22;1.70;;;;;;;0.72;98.80;100140.78;2048144;28;21172;-63
2022/04/09 03:17:35;;;;;;;13.02;1.90;;;;;;;0.71;99.25;100135.50;2055734;28;20051;-63
2022/04/09 03:18:38;;;;;;;7.50;1.15;;;;;;;0.70;98.61;100139.91;2063666;28;20039;-63
2022/04/09 03:19:39;;;;;;;10.57;1.92;;;;;;;0.69;98.61;100139.91;2054938;28;20059;-63
2022/04/09 03:20:43;;;;;;;10.02;2.03;;;;;;;0.70;99.36;100144.28;2055318;28;20083;-63
2022/04/09 03:21:47;;;;;;;7.15;2.15;;;;;;;0.62;98.78;100143.38;2062985;28;20039;-63
2022/04/09 03:22:51;;;;;;;7.95;1.48;;;;;;;0.61;98.86;100150.41;2063254;28;20928;-63
2022/04/09 03:24:05;;;;;;;5.28;1.27;;;;;;;0.61;98.73;100152.16;2057317;28;20039;-62
2022/04/09 03:25:08;;;;;;;8.52;1.33;;;;;;;0.62;98.49;100156.56;2055319;28;20058;-63
2022/04/09 03:26:11;;;;;;;8.90;1.77;;;;;;;0.64;99.06;100153.03;2055283;28;20047;-63
2022/04/09 03:27:19;;;;;;;8.90;1.70;;;;;;;0.71;98.78;100154.81;2064604;28;20950;-62
2022/04/09 03:28:21;;;;;;;7.75;1.70;;;;;;;0.72;99.14;100156.59;2071352;28;25875;-62
2022/04/09 03:29:23;;;;;;;8.73;2.15;;;;;;;0.81;99.25;100154.88;2072442;28;20041;-63
2022/04/09 03:30:27;;;;;;;9.80;1.90;;;;;;;0.77;99.32;100159.25;2065359;28;20046;-63
2022/04/09 03:31:35;;;;;;;10.25;2.15;;;;;;;0.84;99.06;100171.56;2063894;28;20194;-63
2022/04/09 03:32:42;;;;;;;12.35;2.28;;;;;;;0.82;99.08;100168.06;2063187;28;20118;-63
2022/04/09 03:33:52;;;;;;;11.52;1.90;;;;;;;0.77;99.12;100164.50;2064999;28;20893;-64
2022/04/09 03:34:57;;;;;;;6.43;1.77;;;;;;;0.79;99.09;100175.06;2063559;28;20074;-63
2022/04/09 03:36:02;;;;;;;9.32;1.88;;;;;;;0.78;99.18;100171.56;2063848;28;20197;-63
2022/04/09 03:37:06;;;;;;;11.82;1.73;;;;;;;0.75;99.10;100172.44;2063429;28;20086;-63
2022/04/09 03:38:12;;;;;;;12.25;2.05;;;;;;;0.76;99.31;100174.19;2064045;28;20150;-63
2022/04/09 03:39:26;;;;;;;6.70;2.05;;;;;;;0.77;98.68;100169.78;2055412;28;20035;-63
2022/04/09 03:40:30;;;;;;;11.38;2.13;;;;;;;0.73;98.77;100168.00;2057015;28;20796;-63
2022/04/09 03:41:32;;;;;;;8.02;1.70;;;;;;;0.71;98.35;100170.63;2063650;28;20155;-64
2022/04/09 03:42:37;;;;;;;6.22;1.95;;;;;;;0.69;98.54;100180.28;2062770;28;20054;-63
2022/04/09 03:43:38;;;;;;;12.00;1.77;;;;;;;0.68;98.92;100175.91;2062208;28;44760;-64
2022/04/09 03:44:40;;;;;;;8.70;2.05;;;;;;;0.72;99.33;100176.81;2071717;28;20027;-63
2022/04/09 03:45:42;;;;;;;9.65;1.90;;;;;;;0.68;98.63;100178.53;2070507;28;38967;-64
2022/04/09 03:46:46;;;;;;;10.10;1.80;;;;;;;0.68;99.28;100181.19;2063060;28;20971;-64
2022/04/09 03:47:51;;;;;;;8.27;1.80;;;;;;;0.64;98.78;100178.50;2063938;28;20051;-64
2022/04/09 03:48:53;;;;;;;7.03;1.98;;;;;;;0.65;98.50;100181.16;2063097;28;20121;-63
2022/04/09 03:50:04;;;;;;;9.45;2.00;;;;;;;0.63;98.95;100185.53;2063951;28;20035;-64
2022/04/09 03:51:07;;;;;;;8.98;1.60;;;;;;;0.61;98.66;100189.94;2062549;28;41681;-63
2022/04/09 03:52:09;;;;;;;4.97;1.33;;;;;;;0.58;98.22;100187.28;2055640;28;20047;-64
2022/04/09 03:53:12;;;;;;;7.18;1.75;;;;;;;0.63;98.60;100196.09;2054792;28;20044;-64
2022/04/09 03:54:14;;;;;;;10.07;1.40;;;;;;;0.63;98.88;100192.53;2055527;28;20063;-64
2022/04/09 03:55:16;;;;;;;6.25;1.10;;;;;;;0.56;98.67;100189.00;2054793;28;36241;-64
2022/04/09 03:56:18;;;;;;;9.35;1.63;;;;;;;0.55;98.94;100195.16;2062996;28;20043;-64
2022/04/09 03:57:20;;;;;;;10.13;1.73;;;;;;;0.54;98.66;100193.41;2063388;28;20900;-64
2022/04/09 03:58:26;;;;;;;8.82;1.83;;;;;;;0.54;98.62;100188.13;2055304;28;20071;-64
2022/04/09 03:59:30;;;;;;;8.20;1.42;;;;;;;0.52;98.77;100192.47;2055575;28;20830;-63
2022/04/09 04:00:32;;;;;;;11.73;2.25;;;;;;;0.49;99.29;100190.72;2063520;28;20035;-64
2022/04/09 04:01:35;;;;;;;7.85;1.85;;;;;;;0.59;98.87;100202.19;2070968;28;20053;-64
2022/04/09 04:02:41;;;;;;;11.82;2.00;;;;;;;0.52;99.36;100203.00;2063250;28;20892;-64
2022/04/09 04:03:47;;;;;;;9.32;1.42;;;;;;;0.49;98.69;100200.38;2063846;28;20051;-63
2022/04/09 04:04:49;;;;;;;16.40;2.17;;;;;;;0.55;98.61;100203.03;2063280;28;20149;-64
2022/04/09 04:05:51;;;;;;;14.50;2.22;;;;;;;0.47;98.43;100199.50;2063191;28;31501;-64
2022/04/09 04:06:53;;;;;;;9.88;1.85;;;;;;;0.44;98.73;100212.63;2071382;28;20046;-64
2022/04/09 04:07:55;;;;;;;6.50;1.33;;;;;;;0.36;98.24;100208.19;2062464;28;30440;-63
2022/04/09 04:08:58;;;;;;;12.07;1.58;;;;;;;0.35;98.50;100208.19;2055064;28;21120;-63
2022/04/09 04:10:05;;;;;;;3.97;1.10;;;;;;;0.33;98.62;100208.19;2063133;28;20047;-64
2022/04/09 04:11:07;;;;;;;9.73;1.27;;;;;;;0.26;98.15;100209.00;2071166;28;20926;-64
2022/04/09 04:12:10;;;;;;;10.20;1.58;;;;;;;0.25;98.57;100209.91;2062845;28;20170;-63
2022/04/09 04:13:12;;;;;;;9.07;1.70;;;;;;;0.29;99.29;100213.44;2062784;28;20038;-63
2022/04/09 04:14:15;;;;;;;14.85;2.20;;;;;;;0.25;98.65;100211.63;2062899;28;20059;-64
2022/04/09 04:15:18;;;;;;;7.88;1.77;;;;;;;0.24;98.89;100221.28;2054128;28;20577;-64
2022/04/09 04:16:22;;;;;;;9.68;1.50;;;;;;;0.22;97.97;100214.25;2063335;28;20050;-64
2022/04/09 04:17:24;;;;;;;9.25;1.92;;;;;;;0.23;98.54;100216.88;2062715;28;29285;-64
2022/04/09 04:18:29;;;;;;;11.15;2.03;;;;;;;0.25;98.90;100222.16;2094791;22;20817;-63
2022/04/09 04:19:33;;;;;;;10.00;2.28;;;;;;;0.26;99.14;100216.91;2073521;28;20061;-64
2022/04/09 04:20:36;;;;;;;9.30;2.17;;;;;;;0.23;98.79;100218.63;2063246;28;20039;-63
2022/04/09 04:21:38;;;;;;;7.10;1.80;;;;;;;0.24;99.01;100226.53;2070727;28;30135;-64
2022/04/09 04:22:42;;;;;;;10.75;2.50;;;;;;;0.28;99.79;100215.16;2071101;28;20042;-63
2022/04/09 04:23:44;;;;;;;9.13;2.03;;;;;;;0.27;99.71;100218.69;2071283;28;20043;-64
2022/04/09 04:24:56;;;;;;;8.55;1.80;;;;;;;0.29;99.56;100222.19;2071387;28;20038;-63
2022/04/09 04:25:58;;;;;;;12.65;2.55;;;;;;;0.34;98.92;100220.47;2062191;28;20054;-64
2022/04/09 04:27:02;;;;;;;12.13;2.35;;;;;;;0.35;99.21;100230.13;2054987;28;20048;-63
2022/04/09 04:28:04;;;;;;;12.20;2.58;;;;;;;0.41;99.72;100231.03;2054508;28;20216;-64
2022/04/09 04:29:05;;;;;;;11.55;2.28;;;;;;;0.31;99.86;100230.13;2055907;28;20047;-64
2022/04/09 04:30:08;;;;;;;13.95;2.50;;;;;;;0.32;99.42;100232.75;2055496;28;20089;-63
2022/04/09 04:31:10;;;;;;;12.20;2.30;;;;;;;0.28;99.04;100233.59;2063216;28;20047;-64
2022/04/09 04:32:12;;;;;;;9.32;2.00;;;;;;;0.26;99.00;100230.06;2054752;28;20959;-64
2022/04/09 04:33:14;;;;;;;10.85;1.92;;;;;;;0.27;99.32;100233.56;2055411;28;20035;-63
2022/04/09 04:34:24;;;;;;;9.57;1.92;;;;;;;0.27;99.78;100238.84;2062339;28;20050;-64
2022/04/09 04:35:29;;;;;;;17.17;2.58;;;;;;;0.26;99.39;100237.97;2063341;28;20963;-64
2022/04/09 04:36:31;;;;;;;13.18;2.53;;;;;;;0.26;99.33;100239.72;2062761;28;20198;-64
2022/04/09 04:37:45;;;;;;;7.88;1.88;;;;;;;0.29;99.74;100239.75;2063231;28;21015;-64
2022/04/09 04:38:50;;;;;;;13.02;2.22;;;;;;;0.26;99.61;100242.34;2054949;28;20898;-63
2022/04/09 04:39:54;;;;;;;12.13;2.28;;;;;;;0.27;99.32;100242.38;2054517;28;34863;-64
2022/04/09 04:40:56;;;;;;;11.32;2.30;;;;;;;0.25;99.29;100244.13;2054572;28;20872;-65
2022/04/09 04:42:00;;;;;;;11.07;2.30;;;;;;;0.26;99.39;100248.50;2047477;28;20940;-63
2022/04/09 04:43:02;;;;;;;12.85;2.30;;;;;;;0.33;99.45;100250.31;2054493;28;20050;-64
2022/04/09 04:44:06;;;;;;;11.95;2.63;;;;;;;0.33;99.63;100252.94;2055183;28;20151;-64
2022/04/09 04:45:14;;;;;;;13.15;2.03;;;;;;;0.35;99.69;100255.59;2054661;28;20228;-63
2022/04/09 04:46:21;;;;;;;16.98;2.60;;;;;;;0.33;99.26;100254.69;2047855;28;20044;-64
2022/04/09 04:47:23;;;;;;;13.80;2.70;;;;;;;0.34;99.86;100262.59;2054416;28;20036;-64
2022/04/09 04:48:25;;;;;;;11.18;2.40;;;;;;;0.38;99.24;100260.88;2054878;28;22577;-64
2022/04/09 04:49:27;;;;;;;13.43;2.42;;;;;;;0.41;99.49;100265.28;2057223;28;20636;-63
2022/04/09 04:50:37;;;;;;;5.97;1.77;;;;;;;0.45;99.35;100257.44;2054893;28;20152;-64
2022/04/09 04:51:42;;;;;;;9.82;2.15;;;;;;;0.46;99.35;100259.16;2055536;28;20059;-63
2022/04/09 04:52:45;;;;;;;8.15;2.42;;;;;;;0.49;99.85;100259.19;2054717;28;20868;-64
2022/04/09 04:53:47;;;;;;;9.77;1.95;;;;;;;0.51;99.23;100268.00;2055008;28;20046;-64
2022/04/09 04:54:49;;;;;;;12.48;2.13;;;;;;;0.55;99.18;100271.53;2054945;28;20039;-64
2022/04/09 04:55:51;;;;;;;10.60;2.08;;;;;;;0.60;99.60;100267.19;2053693;28;45608;-63
2022/04/09 04:56:55;;;;;;;7.55;1.52;;;;;;;0.62;99.21;100275.09;2063688;28;21181;-64
2022/04/09 04:57:57;;;;;;;9.55;2.20;;;;;;;0.62;98.53;100265.44;2064295;28;20070;-64